Terminal Aerodrome Forecast
Issued by NWS Denver/Boulder, CO

Home | Current Version | Previous Version | Text Only | Print | Product List | Glossary On
Versions: 1 2 3 4 5 6 7 8 9 10 11 12 13 14 15 16 17 18 19 20 21 22 23 24 25 26 27 28 29 30 31 32 33 34 35 36 37 38 39 40 41 42 43 44 45 46 47 48 49 50
000
FTUS45 KBOU 051740
TAFDEN
TAF
KDEN 051740Z 0518/0624 06007KT P6SM SCT090 BKN140
     FM052100 29010KT P6SM VCTS SCT080CB BKN110
      TEMPO 0522/0602 VRB20G40KT -TSRA BKN070CB
     FM060200 33010KT P6SM VCSH SCT080 BKN120
     FM060500 01012G18KT P6SM SCT080 BKN120
     FM060900 02012KT P6SM VCSH BKN015 OVC040 PROB30 0609/0615 -SHRA
     FM061500 03010KT P6SM VCSH BKN020 PROB30 0615/0619 -SHRA
     FM061900 04007KT P6SM VCTS BKN025CB=

USA.gov is the U.S. government's official web portal to all federal, state and local government web resources and services.